Historyczne dane pomiarowe

Dodano dane terminowe – wersja testowa.

Dane z okresu 1951-2019

Wersja bazy: 1.34 [2019-03-16, lista zmian], aktualizacja planowana na 2019-04-15

Dane meteo z obszaru Polski uzyskane na podstawie danych udostępnionych przez Instytut Meteorologii i Gospodarki Wodnej – Państwowy Instytut Badawczy.

 

Wybierz Datę:    

       

TemperaturaWilgotnośćWiatrCiśnienieOpadyŚniegCzas trwania zjawisk
 Stacja t tx tn tng RH VA  wxwx mslp ppp RRR   cm mm wxwxwxwxwxwxwx
1972-08-13 15.3 19.3 9.2- 63.4 11.4 3.1 3.8 1.2 0.0- 845.1 0.0 0.0 0.0- 0.0 12.3-------
1972-08-14 17.7 21.2 13.8- 55.5 11.2 4.3 7.5 4.8 1.7- 844.4 0.2 0.0 0.2- 0.0 9.4--- 0.4---
1972-08-15 14.9 17.6 12.8- 98.9 16.7 6.6 11.9 13.0 7.7- 840.7 1.6 0.1 1.5- 0.0 1.8 0.9-- 18.1---
1972-08-16 12.6 18.0 8.2- 91.1 13.2 6.8 5.8 3.3 0.3- 840.4 1.1 0.1 1.0- 0.0 6.1 0.4-- 17.3-- 1.1
1972-08-17 6.9 10.2 5.8-100.0 9.9 8.0 3.4 0.0 0.0- 839.8 1.4 1.2 0.2- 0.0 0.0 5.9-- 24.0---
1972-08-18 4.4 6.9 2.0- 98.4 8.3 7.1 12.4 16.5 13.0- 832.9 4.7 3.2 1.5- 0.0 1.6 8.8-- 21.2---
1972-08-19 2.0 3.7 0.8-100.0 7.1 8.0 16.5 24.0 17.0- 835.3 0.2 0.1 0.1- 0.0 1.8 2.6-- 24.0---
1972-08-20 3.3 4.8 1.9-100.0 7.7 8.0 23.6 24.0 24.0- 836.3 49.6 6.3 43.3- 0.0 0.0 13.6-- 24.0---
1972-08-21 4.4 5.4 3.2-100.0 8.4 8.0 26.5 24.0 24.0- 832.7 15.8 13.0 2.8- 0.0 0.0 17.3-- 24.0---
1972-08-22 3.0 5.8 0.9-100.0 7.6 8.0 15.3 20.7 6.3- 835.8 2.2 1.0 1.2- 0.0 0.0 9.6-- 24.0---
1972-08-23 4.5 6.0 3.9- 98.9 8.3 6.5 9.3 8.3 0.0- 839.6 0.1 0.1 0.0- 0.0 1.1 3.5-- 19.2---
1972-08-24 3.6 5.8 1.9- 98.0 7.8 6.4 10.8 16.5 3.8- 841.6 0.6 0.3 0.3- 0.0 2.8 3.0-- 16.6---
1972-08-25 2.7 5.0 1.6- 98.5 7.3 7.3 11.0 15.3 4.3- 840.4 0.1 0.1 0.0- 0.0 2.8 0.1-- 24.0---
1972-08-26 3.2 5.0 1.4- 99.3 7.7 7.1 5.4 0.0 0.0- 839.7 0.3 0.3 0.0- 0.0 0.9 1.1-- 20.6---
1972-08-27 3.9 6.6 2.5- 92.4 7.5 7.6 2.6 0.0 0.0- 840.3 0.0 0.0 0.0- 0.0 0.1--- 4.8---
1972-08-28 4.3 6.3 3.1- 92.0 7.7 6.9 3.3 0.0 0.0- 841.0 0.3 0.3 0.0- 0.0 1.3 1.3-- 15.3---
1972-08-29 4.7 6.6 3.2- 92.3 8.0 5.6 3.4 0.0 0.0- 841.8 0.1 0.0 0.1- 0.0 4.8--- 12.6---
1972-08-30 4.0 5.2 3.0- 99.3 8.1 6.4 7.8 5.7 0.0- 841.5 0.7 0.3 0.4- 0.0 0.4 0.2-- 22.5---
1972-08-31 3.6 4.6 2.5-100.0 7.9 8.0 10.6 17.7 3.8- 840.9 2.1 0.3 1.8- 0.0 0.0 1.0-- 24.0---
1972-09-01 2.8 4.4 1.0-100.0 7.5 8.0 15.6 20.3 11.7- 838.6 78.9 48.3 30.6- 0.0 0.0 17.2- 2.8 24.0---
1972-09-02 3.4 5.0 2.0- 96.5 7.5 5.9 3.9 0.0 0.0- 844.3 0.1 0.1 0.0- 0.0 2.1--- 19.7 2.0--
1972-09-03 7.4 9.6 3.8- 76.9 7.9 2.0 1.1 0.0 0.0- 844.7 0.0 0.0 0.0- 0.0 6.1--- 5.3 7.0--
1972-09-04 7.9 12.4 5.8- 87.1 9.4 3.6 2.3 0.0 0.0- 841.8 0.0 0.0 0.0- 0.0 8.2--- 1.9 6.0--
1972-09-05 8.9 13.6 6.7- 93.5 10.6 5.0 5.5 0.0 0.0- 840.5 0.4 0.0 0.4- 0.0 4.8--- 15.0---
1972-09-06 9.1 11.4 7.4-100.0 11.6 7.4 8.5 6.7 0.0- 841.1 4.6 0.3 4.3- 0.0 1.6 0.7-- 18.6---
1972-09-07 9.4 10.6 8.2- 97.9 11.6 6.5 9.5 12.8 0.0- 840.1 0.5 0.2 0.3- 0.0 5.9 0.2-- 17.3---
1972-09-08 10.3 13.6 8.4- 88.4 11.0 5.1 4.8 0.7 0.0- 840.1 0.3 0.0 0.3- 0.0 4.5 1.1-- 4.4---
1972-09-09 9.8 11.5 7.6- 97.4 11.8 6.8 10.6 16.5 0.0- 838.7 19.6 4.5 15.1- 0.0 0.0 6.1-- 21.3-- 2.7
1972-09-10 9.0 10.6 7.6- 99.9 11.4 7.9 11.4 18.3 5.3- 833.4 12.3 3.8 8.5- 0.0 0.9 12.2-- 24.0---
1972-09-11 1.1 9.4 -1.6- 99.8 6.7 7.4 13.6 24.0 6.3- 835.4 1.3 1.0 0.3- 0.0 1.3 7.7 0.1- 19.7---
1248.2 ms

 

Źródłem pochodzenia danych jest Instytut Meteorologii i Gospodarki Wodnej – Państwowy Instytut Badawczy. Dane Instytutu Meteorologii i Gospodarki Wodnej – Państwowego Instytutu Badawczego zostały przetworzone.

Dane źródłowe można odnaleźć na stronie https://dane.imgw.pl